Main page
METAR-TAF:

METAR-TAF

Airports :

Chester Airport

Chester, Connecticut, United States

latitude: 41-23-02N, longitude: 072-30-21W, elevation: 417 ft

Current weather observation

The report was made 16 minutes ago, at 03:15 UTC
Wind 5 mph from the South
Temperature 43°F
Humidity 81%
Pressure 29.96 in. Hg
Visibility: 10 miles
Few clouds at a height of 11000 ft

METAR: KSNC 250315Z AUTO 17004KT 10SM FEW110 06/03 A2996 RMK AO2

Time: 22:31 (03:31 UTC)


TAF: missing

Weather observations and forecasts of more than 4000 airports (METAR and TAF reports).

The available stations are represented by yellow and red dots on the map.

Hover mouse over dot to see the name of the station.

Then click to see weather observations and forecasts.

To change the map : click on the green buttons with a black cross to zoom in, on the green button with a dash to zoom out, or on the green arrows for adjacent maps.


METAR-TAF: